sensor_id;sensor_type;location;lat;lon;timestamp;P1;durP1;ratioP1;P2;durP2;ratioP2
18090;SDS011;9172;49.948;9.208;2024-03-02T00:01:54;19.53;;;9.37;;
18090;SDS011;9172;49.948;9.208;2024-03-02T00:04:22;21.03;;;9.70;;
18090;SDS011;9172;49.948;9.208;2024-03-02T00:06:51;21.87;;;10.13;;
18090;SDS011;9172;49.948;9.208;2024-03-02T00:09:21;21.73;;;10.40;;
18090;SDS011;9172;49.948;9.208;2024-03-02T00:11:50;19.10;;;9.77;;
18090;SDS011;9172;49.948;9.208;2024-03-02T00:14:18;21.50;;;9.77;;
18090;SDS011;9172;49.948;9.208;2024-03-02T00:16:47;18.37;;;9.27;;
18090;SDS011;9172;49.948;9.208;2024-03-02T00:19:16;19.57;;;9.67;;
18090;SDS011;9172;49.948;9.208;2024-03-02T00:21:44;21.50;;;10.60;;
18090;SDS011;9172;49.948;9.208;2024-03-02T00:24:18;19.57;;;8.80;;
18090;SDS011;9172;49.948;9.208;2024-03-02T00:26:48;15.17;;;8.20;;
18090;SDS011;9172;49.948;9.208;2024-03-02T00:29:17;18.47;;;8.67;;
18090;SDS011;9172;49.948;9.208;2024-03-02T00:31:47;17.03;;;8.53;;
18090;SDS011;9172;49.948;9.208;2024-03-02T00:34:15;18.67;;;9.10;;
18090;SDS011;9172;49.948;9.208;2024-03-02T00:36:45;15.73;;;8.07;;
18090;SDS011;9172;49.948;9.208;2024-03-02T00:39:15;19.20;;;8.50;;
18090;SDS011;9172;49.948;9.208;2024-03-02T00:41:44;18.93;;;9.07;;
18090;SDS011;9172;49.948;9.208;2024-03-02T00:44:13;18.03;;;8.43;;
18090;SDS011;9172;49.948;9.208;2024-03-02T00:46:46;20.00;;;8.50;;
18090;SDS011;9172;49.948;9.208;2024-03-02T00:49:18;20.30;;;8.43;;
18090;SDS011;9172;49.948;9.208;2024-03-02T00:51:48;16.47;;;7.10;;
18090;SDS011;9172;49.948;9.208;2024-03-02T00:54:19;14.23;;;7.17;;
18090;SDS011;9172;49.948;9.208;2024-03-02T00:56:50;15.47;;;8.20;;
18090;SDS011;9172;49.948;9.208;2024-03-02T00:59:21;17.67;;;8.50;;
18090;SDS011;9172;49.948;9.208;2024-03-02T01:01:50;17.47;;;8.60;;
18090;SDS011;9172;49.948;9.208;2024-03-02T01:04:20;21.27;;;8.47;;
18090;SDS011;9172;49.948;9.208;2024-03-02T01:06:48;17.13;;;8.43;;
18090;SDS011;9172;49.948;9.208;2024-03-02T01:09:17;15.93;;;7.83;;
18090;SDS011;9172;49.948;9.208;2024-03-02T01:11:46;16.77;;;8.07;;
18090;SDS011;9172;49.948;9.208;2024-03-02T01:14:14;22.03;;;8.40;;
18090;SDS011;9172;49.948;9.208;2024-03-02T01:16:43;15.83;;;8.37;;
18090;SDS011;9172;49.948;9.208;2024-03-02T01:19:12;20.27;;;9.10;;
18090;SDS011;9172;49.948;9.208;2024-03-02T01:21:41;17.77;;;9.20;;
18090;SDS011;9172;49.948;9.208;2024-03-02T01:24:09;15.40;;;7.93;;
18090;SDS011;9172;49.948;9.208;2024-03-02T01:26:39;16.23;;;8.50;;
18090;SDS011;9172;49.948;9.208;2024-03-02T01:29:08;16.53;;;8.57;;
18090;SDS011;9172;49.948;9.208;2024-03-02T01:31:36;19.87;;;8.93;;
18090;SDS011;9172;49.948;9.208;2024-03-02T01:34:07;15.27;;;7.73;;
18090;SDS011;9172;49.948;9.208;2024-03-02T01:36:35;18.60;;;8.73;;
18090;SDS011;9172;49.948;9.208;2024-03-02T01:39:04;19.87;;;8.73;;
18090;SDS011;9172;49.948;9.208;2024-03-02T01:41:35;17.43;;;8.37;;
18090;SDS011;9172;49.948;9.208;2024-03-02T01:44:04;11.90;;;6.97;;
18090;SDS011;9172;49.948;9.208;2024-03-02T01:46:33;17.27;;;8.40;;
18090;SDS011;9172;49.948;9.208;2024-03-02T01:49:02;15.97;;;7.87;;
18090;SDS011;9172;49.948;9.208;2024-03-02T01:51:31;18.93;;;7.37;;
18090;SDS011;9172;49.948;9.208;2024-03-02T01:53:59;13.13;;;7.33;;
18090;SDS011;9172;49.948;9.208;2024-03-02T01:56:28;17.10;;;7.30;;
18090;SDS011;9172;49.948;9.208;2024-03-02T01:58:57;15.87;;;7.97;;
18090;SDS011;9172;49.948;9.208;2024-03-02T02:01:25;16.53;;;7.50;;
18090;SDS011;9172;49.948;9.208;2024-03-02T02:03:54;14.80;;;7.57;;
18090;SDS011;9172;49.948;9.208;2024-03-02T02:06:22;16.27;;;7.90;;
18090;SDS011;9172;49.948;9.208;2024-03-02T02:08:52;12.67;;;6.60;;
18090;SDS011;9172;49.948;9.208;2024-03-02T02:11:20;19.37;;;7.90;;
18090;SDS011;9172;49.948;9.208;2024-03-02T02:13:49;14.63;;;7.27;;
18090;SDS011;9172;49.948;9.208;2024-03-02T02:16:18;16.40;;;7.40;;
18090;SDS011;9172;49.948;9.208;2024-03-02T02:18:46;14.70;;;6.87;;
18090;SDS011;9172;49.948;9.208;2024-03-02T02:21:15;13.57;;;6.90;;
18090;SDS011;9172;49.948;9.208;2024-03-02T02:23:43;14.50;;;7.40;;
18090;SDS011;9172;49.948;9.208;2024-03-02T02:26:14;12.93;;;7.53;;
18090;SDS011;9172;49.948;9.208;2024-03-02T02:28:42;14.83;;;6.33;;
18090;SDS011;9172;49.948;9.208;2024-03-02T02:31:13;14.03;;;6.27;;
18090;SDS011;9172;49.948;9.208;2024-03-02T02:33:42;12.67;;;6.50;;
18090;SDS011;9172;49.948;9.208;2024-03-02T02:36:11;11.87;;;6.23;;
18090;SDS011;9172;49.948;9.208;2024-03-02T02:38:40;12.43;;;6.17;;
18090;SDS011;9172;49.948;9.208;2024-03-02T02:41:26;14.87;;;6.67;;
18090;SDS011;9172;49.948;9.208;2024-03-02T02:43:55;13.10;;;7.10;;
18090;SDS011;9172;49.948;9.208;2024-03-02T02:46:23;17.33;;;6.00;;
18090;SDS011;9172;49.948;9.208;2024-03-02T02:48:52;12.53;;;5.90;;
18090;SDS011;9172;49.948;9.208;2024-03-02T02:51:21;11.23;;;5.43;;
18090;SDS011;9172;49.948;9.208;2024-03-02T02:53:51;12.07;;;6.10;;
18090;SDS011;9172;49.948;9.208;2024-03-02T02:56:20;10.40;;;5.27;;
18090;SDS011;9172;49.948;9.208;2024-03-02T02:58:48;10.10;;;5.33;;
18090;SDS011;9172;49.948;9.208;2024-03-02T03:01:17;10.37;;;6.03;;
18090;SDS011;9172;49.948;9.208;2024-03-02T03:03:46;10.07;;;4.97;;
18090;SDS011;9172;49.948;9.208;2024-03-02T03:06:14;7.60;;;5.10;;
18090;SDS011;9172;49.948;9.208;2024-03-02T03:08:43;6.97;;;4.47;;
18090;SDS011;9172;49.948;9.208;2024-03-02T03:11:11;7.77;;;4.13;;
18090;SDS011;9172;49.948;9.208;2024-03-02T03:13:40;9.80;;;4.33;;
18090;SDS011;9172;49.948;9.208;2024-03-02T03:16:09;7.83;;;4.17;;
18090;SDS011;9172;49.948;9.208;2024-03-02T03:18:38;8.60;;;4.10;;
18090;SDS011;9172;49.948;9.208;2024-03-02T03:21:06;7.60;;;3.73;;
18090;SDS011;9172;49.948;9.208;2024-03-02T03:23:35;7.20;;;3.73;;
18090;SDS011;9172;49.948;9.208;2024-03-02T03:26:03;6.17;;;3.60;;
18090;SDS011;9172;49.948;9.208;2024-03-02T03:28:32;7.60;;;3.50;;
18090;SDS011;9172;49.948;9.208;2024-03-02T03:31:00;7.60;;;3.63;;
18090;SDS011;9172;49.948;9.208;2024-03-02T03:33:29;4.83;;;3.30;;
18090;SDS011;9172;49.948;9.208;2024-03-02T03:35:58;5.30;;;3.33;;
18090;SDS011;9172;49.948;9.208;2024-03-02T03:38:26;6.63;;;3.07;;
18090;SDS011;9172;49.948;9.208;2024-03-02T03:40:55;7.33;;;3.00;;
18090;SDS011;9172;49.948;9.208;2024-03-02T03:43:23;7.57;;;3.53;;
18090;SDS011;9172;49.948;9.208;2024-03-02T03:45:52;5.63;;;3.00;;
18090;SDS011;9172;49.948;9.208;2024-03-02T03:48:21;6.47;;;3.20;;
18090;SDS011;9172;49.948;9.208;2024-03-02T03:50:49;6.27;;;3.53;;
18090;SDS011;9172;49.948;9.208;2024-03-02T03:53:17;7.43;;;3.20;;
18090;SDS011;9172;49.948;9.208;2024-03-02T03:55:46;6.13;;;3.00;;
18090;SDS011;9172;49.948;9.208;2024-03-02T03:58:15;5.80;;;3.17;;
18090;SDS011;9172;49.948;9.208;2024-03-02T04:00:45;5.33;;;3.00;;
18090;SDS011;9172;49.948;9.208;2024-03-02T04:03:13;5.90;;;3.53;;
18090;SDS011;9172;49.948;9.208;2024-03-02T04:05:42;6.80;;;3.23;;
18090;SDS011;9172;49.948;9.208;2024-03-02T04:08:10;6.67;;;3.23;;
18090;SDS011;9172;49.948;9.208;2024-03-02T04:10:39;5.47;;;3.27;;
18090;SDS011;9172;49.948;9.208;2024-03-02T04:13:08;7.60;;;3.70;;
18090;SDS011;9172;49.948;9.208;2024-03-02T04:15:37;8.83;;;3.20;;
18090;SDS011;9172;49.948;9.208;2024-03-02T04:18:07;10.60;;;4.23;;
18090;SDS011;9172;49.948;9.208;2024-03-02T04:20:35;7.07;;;3.53;;
18090;SDS011;9172;49.948;9.208;2024-03-02T04:23:04;6.87;;;3.80;;
18090;SDS011;9172;49.948;9.208;2024-03-02T04:25:32;9.67;;;4.50;;
18090;SDS011;9172;49.948;9.208;2024-03-02T04:28:01;6.07;;;3.67;;
18090;SDS011;9172;49.948;9.208;2024-03-02T04:30:29;7.10;;;4.17;;
18090;SDS011;9172;49.948;9.208;2024-03-02T04:32:58;8.50;;;4.03;;
18090;SDS011;9172;49.948;9.208;2024-03-02T04:35:28;8.83;;;4.17;;
18090;SDS011;9172;49.948;9.208;2024-03-02T04:37:57;7.73;;;4.07;;
18090;SDS011;9172;49.948;9.208;2024-03-02T04:40:25;9.07;;;4.30;;
18090;SDS011;9172;49.948;9.208;2024-03-02T04:42:54;8.77;;;4.40;;
18090;SDS011;9172;49.948;9.208;2024-03-02T04:45:23;6.00;;;3.67;;
18090;SDS011;9172;49.948;9.208;2024-03-02T04:47:52;8.53;;;4.57;;
18090;SDS011;9172;49.948;9.208;2024-03-02T04:50:20;7.77;;;4.13;;
18090;SDS011;9172;49.948;9.208;2024-03-02T04:52:49;8.00;;;3.97;;
18090;SDS011;9172;49.948;9.208;2024-03-02T04:55:17;7.07;;;3.87;;
18090;SDS011;9172;49.948;9.208;2024-03-02T04:57:58;11.70;;;3.93;;
18090;SDS011;9172;49.948;9.208;2024-03-02T05:00:26;7.03;;;4.23;;
18090;SDS011;9172;49.948;9.208;2024-03-02T05:02:54;8.73;;;4.13;;
18090;SDS011;9172;49.948;9.208;2024-03-02T05:05:23;7.57;;;3.90;;
18090;SDS011;9172;49.948;9.208;2024-03-02T05:07:52;6.83;;;4.10;;
18090;SDS011;9172;49.948;9.208;2024-03-02T05:10:21;7.27;;;3.60;;
18090;SDS011;9172;49.948;9.208;2024-03-02T05:12:50;8.03;;;4.13;;
18090;SDS011;9172;49.948;9.208;2024-03-02T05:15:25;7.27;;;4.07;;
18090;SDS011;9172;49.948;9.208;2024-03-02T05:17:54;8.40;;;4.30;;
18090;SDS011;9172;49.948;9.208;2024-03-02T05:20:24;6.93;;;4.20;;
18090;SDS011;9172;49.948;9.208;2024-03-02T05:22:52;7.80;;;4.23;;
18090;SDS011;9172;49.948;9.208;2024-03-02T05:25:21;8.23;;;4.00;;
18090;SDS011;9172;49.948;9.208;2024-03-02T05:27:50;6.90;;;3.70;;
18090;SDS011;9172;49.948;9.208;2024-03-02T05:30:18;10.60;;;3.77;;
18090;SDS011;9172;49.948;9.208;2024-03-02T05:32:47;8.70;;;4.33;;
18090;SDS011;9172;49.948;9.208;2024-03-02T05:35:15;6.87;;;3.77;;
18090;SDS011;9172;49.948;9.208;2024-03-02T05:37:44;6.30;;;3.57;;
18090;SDS011;9172;49.948;9.208;2024-03-02T05:40:12;9.63;;;4.37;;
18090;SDS011;9172;49.948;9.208;2024-03-02T05:42:41;7.10;;;4.30;;
18090;SDS011;9172;49.948;9.208;2024-03-02T05:45:10;8.47;;;3.90;;
18090;SDS011;9172;49.948;9.208;2024-03-02T05:47:38;8.13;;;4.30;;
18090;SDS011;9172;49.948;9.208;2024-03-02T05:50:07;6.27;;;3.77;;
18090;SDS011;9172;49.948;9.208;2024-03-02T05:52:36;10.30;;;4.37;;
18090;SDS011;9172;49.948;9.208;2024-03-02T05:55:06;9.90;;;3.97;;
18090;SDS011;9172;49.948;9.208;2024-03-02T05:57:34;6.10;;;3.53;;
18090;SDS011;9172;49.948;9.208;2024-03-02T06:00:14;8.60;;;4.00;;
18090;SDS011;9172;49.948;9.208;2024-03-02T06:02:43;8.10;;;3.67;;
18090;SDS011;9172;49.948;9.208;2024-03-02T06:05:12;9.20;;;4.57;;
18090;SDS011;9172;49.948;9.208;2024-03-02T06:07:41;7.93;;;4.03;;
18090;SDS011;9172;49.948;9.208;2024-03-02T06:12:50;8.40;;;4.03;;
18090;SDS011;9172;49.948;9.208;2024-03-02T06:15:18;10.63;;;4.57;;
18090;SDS011;9172;49.948;9.208;2024-03-02T06:17:47;7.60;;;4.30;;
18090;SDS011;9172;49.948;9.208;2024-03-02T06:20:15;7.47;;;3.97;;
18090;SDS011;9172;49.948;9.208;2024-03-02T06:22:44;8.83;;;3.77;;
18090;SDS011;9172;49.948;9.208;2024-03-02T06:25:12;5.77;;;3.63;;
18090;SDS011;9172;49.948;9.208;2024-03-02T06:27:41;7.93;;;4.53;;
18090;SDS011;9172;49.948;9.208;2024-03-02T06:30:11;9.30;;;4.77;;
18090;SDS011;9172;49.948;9.208;2024-03-02T06:32:40;8.53;;;4.10;;
18090;SDS011;9172;49.948;9.208;2024-03-02T06:35:09;7.97;;;4.10;;
18090;SDS011;9172;49.948;9.208;2024-03-02T06:37:38;7.67;;;4.47;;
18090;SDS011;9172;49.948;9.208;2024-03-02T06:40:08;8.07;;;4.33;;
18090;SDS011;9172;49.948;9.208;2024-03-02T06:42:37;9.50;;;4.87;;
18090;SDS011;9172;49.948;9.208;2024-03-02T06:45:06;8.80;;;4.37;;
18090;SDS011;9172;49.948;9.208;2024-03-02T06:47:34;8.53;;;4.60;;
18090;SDS011;9172;49.948;9.208;2024-03-02T06:50:03;7.40;;;4.40;;
18090;SDS011;9172;49.948;9.208;2024-03-02T06:52:33;11.37;;;4.67;;
18090;SDS011;9172;49.948;9.208;2024-03-02T06:55:02;10.00;;;5.47;;
18090;SDS011;9172;49.948;9.208;2024-03-02T06:57:31;9.50;;;4.93;;
18090;SDS011;9172;49.948;9.208;2024-03-02T07:00:00;9.50;;;5.37;;
18090;SDS011;9172;49.948;9.208;2024-03-02T07:02:30;10.33;;;5.80;;
18090;SDS011;9172;49.948;9.208;2024-03-02T07:04:59;12.10;;;6.10;;
18090;SDS011;9172;49.948;9.208;2024-03-02T07:07:28;12.47;;;5.97;;
18090;SDS011;9172;49.948;9.208;2024-03-02T07:09:57;13.47;;;6.37;;
18090;SDS011;9172;49.948;9.208;2024-03-02T07:12:25;16.23;;;7.00;;
18090;SDS011;9172;49.948;9.208;2024-03-02T07:14:54;15.10;;;6.90;;
18090;SDS011;9172;49.948;9.208;2024-03-02T07:17:25;13.10;;;6.63;;
18090;SDS011;9172;49.948;9.208;2024-03-02T07:20:06;13.53;;;6.47;;
18090;SDS011;9172;49.948;9.208;2024-03-02T07:22:36;14.90;;;6.93;;
18090;SDS011;9172;49.948;9.208;2024-03-02T07:25:06;13.50;;;7.07;;
18090;SDS011;9172;49.948;9.208;2024-03-02T07:27:35;16.33;;;7.47;;
18090;SDS011;9172;49.948;9.208;2024-03-02T07:30:04;13.23;;;6.50;;
18090;SDS011;9172;49.948;9.208;2024-03-02T07:32:34;13.20;;;6.70;;
18090;SDS011;9172;49.948;9.208;2024-03-02T07:35:02;14.10;;;6.77;;
18090;SDS011;9172;49.948;9.208;2024-03-02T07:37:31;21.37;;;7.73;;
18090;SDS011;9172;49.948;9.208;2024-03-02T07:40:00;13.63;;;6.50;;
18090;SDS011;9172;49.948;9.208;2024-03-02T07:42:30;11.63;;;6.43;;
18090;SDS011;9172;49.948;9.208;2024-03-02T07:44:58;12.73;;;6.50;;
18090;SDS011;9172;49.948;9.208;2024-03-02T07:47:27;10.53;;;5.83;;
18090;SDS011;9172;49.948;9.208;2024-03-02T07:49:55;12.03;;;6.23;;
18090;SDS011;9172;49.948;9.208;2024-03-02T07:52:24;14.07;;;5.37;;
18090;SDS011;9172;49.948;9.208;2024-03-02T07:54:53;11.60;;;5.60;;
18090;SDS011;9172;49.948;9.208;2024-03-02T07:57:22;11.37;;;5.77;;
18090;SDS011;9172;49.948;9.208;2024-03-02T07:59:51;11.30;;;5.47;;
18090;SDS011;9172;49.948;9.208;2024-03-02T08:02:19;11.50;;;4.73;;
18090;SDS011;9172;49.948;9.208;2024-03-02T08:04:48;11.17;;;4.93;;
18090;SDS011;9172;49.948;9.208;2024-03-02T08:07:17;11.07;;;5.23;;
18090;SDS011;9172;49.948;9.208;2024-03-02T08:09:45;8.57;;;5.50;;
18090;SDS011;9172;49.948;9.208;2024-03-02T08:12:14;9.87;;;5.03;;
18090;SDS011;9172;49.948;9.208;2024-03-02T08:14:44;7.90;;;4.63;;
18090;SDS011;9172;49.948;9.208;2024-03-02T08:17:13;9.67;;;4.83;;
18090;SDS011;9172;49.948;9.208;2024-03-02T08:19:42;10.03;;;5.07;;
18090;SDS011;9172;49.948;9.208;2024-03-02T08:22:11;8.37;;;4.80;;
18090;SDS011;9172;49.948;9.208;2024-03-02T08:24:40;10.07;;;4.60;;
18090;SDS011;9172;49.948;9.208;2024-03-02T08:27:08;9.20;;;4.63;;
18090;SDS011;9172;49.948;9.208;2024-03-02T08:29:38;7.73;;;4.60;;
18090;SDS011;9172;49.948;9.208;2024-03-02T08:32:07;7.13;;;4.07;;
18090;SDS011;9172;49.948;9.208;2024-03-02T08:34:36;10.50;;;5.07;;
18090;SDS011;9172;49.948;9.208;2024-03-02T08:37:04;11.90;;;4.33;;
18090;SDS011;9172;49.948;9.208;2024-03-02T08:39:33;9.07;;;4.50;;
18090;SDS011;9172;49.948;9.208;2024-03-02T08:42:01;7.63;;;4.43;;
18090;SDS011;9172;49.948;9.208;2024-03-02T08:44:31;11.00;;;5.07;;
18090;SDS011;9172;49.948;9.208;2024-03-02T08:47:00;10.03;;;4.67;;
18090;SDS011;9172;49.948;9.208;2024-03-02T08:49:28;9.30;;;4.73;;
18090;SDS011;9172;49.948;9.208;2024-03-02T08:51:57;8.40;;;4.60;;
18090;SDS011;9172;49.948;9.208;2024-03-02T08:54:25;7.30;;;4.23;;
18090;SDS011;9172;49.948;9.208;2024-03-02T08:56:54;8.13;;;4.30;;
18090;SDS011;9172;49.948;9.208;2024-03-02T08:59:23;10.83;;;4.93;;
18090;SDS011;9172;49.948;9.208;2024-03-02T09:01:54;9.43;;;4.53;;
18090;SDS011;9172;49.948;9.208;2024-03-02T09:04:23;10.70;;;5.00;;
18090;SDS011;9172;49.948;9.208;2024-03-02T09:06:51;6.87;;;3.73;;
18090;SDS011;9172;49.948;9.208;2024-03-02T09:09:20;8.70;;;4.17;;
18090;SDS011;9172;49.948;9.208;2024-03-02T09:11:48;10.47;;;4.03;;
18090;SDS011;9172;49.948;9.208;2024-03-02T09:14:17;10.23;;;4.47;;
18090;SDS011;9172;49.948;9.208;2024-03-02T09:16:46;7.20;;;4.27;;
18090;SDS011;9172;49.948;9.208;2024-03-02T09:19:14;10.03;;;4.43;;
18090;SDS011;9172;49.948;9.208;2024-03-02T09:21:43;9.43;;;5.00;;
18090;SDS011;9172;49.948;9.208;2024-03-02T09:24:12;6.37;;;3.70;;
18090;SDS011;9172;49.948;9.208;2024-03-02T09:26:41;9.57;;;4.50;;
18090;SDS011;9172;49.948;9.208;2024-03-02T09:29:09;8.47;;;4.13;;
18090;SDS011;9172;49.948;9.208;2024-03-02T09:31:39;6.90;;;3.93;;
18090;SDS011;9172;49.948;9.208;2024-03-02T09:34:08;7.53;;;3.67;;
18090;SDS011;9172;49.948;9.208;2024-03-02T09:36:37;8.73;;;4.37;;
18090;SDS011;9172;49.948;9.208;2024-03-02T09:39:05;7.10;;;3.97;;
18090;SDS011;9172;49.948;9.208;2024-03-02T09:41:35;9.67;;;4.63;;
18090;SDS011;9172;49.948;9.208;2024-03-02T09:44:05;7.30;;;3.60;;
18090;SDS011;9172;49.948;9.208;2024-03-02T09:46:33;7.83;;;3.63;;
18090;SDS011;9172;49.948;9.208;2024-03-02T09:49:03;7.43;;;3.70;;
18090;SDS011;9172;49.948;9.208;2024-03-02T09:51:31;7.90;;;3.53;;
18090;SDS011;9172;49.948;9.208;2024-03-02T09:54:00;5.97;;;3.20;;
18090;SDS011;9172;49.948;9.208;2024-03-02T09:56:29;7.03;;;2.90;;
18090;SDS011;9172;49.948;9.208;2024-03-02T09:59:08;5.47;;;2.77;;
18090;SDS011;9172;49.948;9.208;2024-03-02T10:01:36;5.67;;;2.63;;
18090;SDS011;9172;49.948;9.208;2024-03-02T10:04:05;5.40;;;3.43;;
18090;SDS011;9172;49.948;9.208;2024-03-02T10:06:38;6.60;;;3.40;;
18090;SDS011;9172;49.948;9.208;2024-03-02T10:09:08;6.83;;;3.13;;
18090;SDS011;9172;49.948;9.208;2024-03-02T10:11:37;7.50;;;4.17;;
18090;SDS011;9172;49.948;9.208;2024-03-02T10:14:06;4.83;;;3.00;;
18090;SDS011;9172;49.948;9.208;2024-03-02T10:16:37;7.77;;;2.80;;
18090;SDS011;9172;49.948;9.208;2024-03-02T10:19:15;5.10;;;2.47;;
18090;SDS011;9172;49.948;9.208;2024-03-02T10:21:46;4.50;;;2.70;;
18090;SDS011;9172;49.948;9.208;2024-03-02T10:24:16;4.77;;;2.60;;
18090;SDS011;9172;49.948;9.208;2024-03-02T10:26:45;4.17;;;2.20;;
18090;SDS011;9172;49.948;9.208;2024-03-02T10:29:14;4.37;;;2.43;;
18090;SDS011;9172;49.948;9.208;2024-03-02T10:31:53;5.37;;;2.13;;
18090;SDS011;9172;49.948;9.208;2024-03-02T10:34:22;3.87;;;2.50;;
18090;SDS011;9172;49.948;9.208;2024-03-02T10:36:51;3.37;;;2.20;;
18090;SDS011;9172;49.948;9.208;2024-03-02T10:39:20;4.23;;;1.70;;
18090;SDS011;9172;49.948;9.208;2024-03-02T10:41:50;3.40;;;1.83;;
18090;SDS011;9172;49.948;9.208;2024-03-02T10:44:22;6.67;;;1.97;;
18090;SDS011;9172;49.948;9.208;2024-03-02T10:46:50;3.13;;;2.13;;
18090;SDS011;9172;49.948;9.208;2024-03-02T10:49:21;6.40;;;2.00;;
18090;SDS011;9172;49.948;9.208;2024-03-02T10:51:51;2.37;;;1.50;;
18090;SDS011;9172;49.948;9.208;2024-03-02T10:54:20;3.40;;;1.77;;
18090;SDS011;9172;49.948;9.208;2024-03-02T10:56:50;3.13;;;1.40;;
18090;SDS011;9172;49.948;9.208;2024-03-02T10:59:24;2.23;;;1.53;;
18090;SDS011;9172;49.948;9.208;2024-03-02T11:01:55;2.67;;;1.50;;
18090;SDS011;9172;49.948;9.208;2024-03-02T11:04:26;2.10;;;1.10;;
18090;SDS011;9172;49.948;9.208;2024-03-02T11:06:57;3.37;;;1.40;;
18090;SDS011;9172;49.948;9.208;2024-03-02T11:09:28;2.00;;;1.20;;
18090;SDS011;9172;49.948;9.208;2024-03-02T11:12:00;2.43;;;1.20;;
18090;SDS011;9172;49.948;9.208;2024-03-02T11:14:31;4.20;;;1.50;;
18090;SDS011;9172;49.948;9.208;2024-03-02T11:17:02;1.90;;;1.27;;
18090;SDS011;9172;49.948;9.208;2024-03-02T11:19:31;3.53;;;1.50;;
18090;SDS011;9172;49.948;9.208;2024-03-02T11:22:03;2.33;;;1.10;;
18090;SDS011;9172;49.948;9.208;2024-03-02T11:24:32;2.53;;;1.53;;
18090;SDS011;9172;49.948;9.208;2024-03-02T11:27:02;2.97;;;1.50;;
18090;SDS011;9172;49.948;9.208;2024-03-02T11:29:43;1.73;;;1.30;;
18090;SDS011;9172;49.948;9.208;2024-03-02T11:32:16;2.30;;;1.43;;
18090;SDS011;9172;49.948;9.208;2024-03-02T11:34:48;2.80;;;1.87;;
18090;SDS011;9172;49.948;9.208;2024-03-02T11:37:18;3.27;;;1.73;;
18090;SDS011;9172;49.948;9.208;2024-03-02T11:39:48;4.27;;;1.33;;
18090;SDS011;9172;49.948;9.208;2024-03-02T11:42:18;4.43;;;1.87;;
18090;SDS011;9172;49.948;9.208;2024-03-02T11:44:47;3.00;;;1.63;;
18090;SDS011;9172;49.948;9.208;2024-03-02T11:47:16;3.53;;;1.87;;
18090;SDS011;9172;49.948;9.208;2024-03-02T11:49:46;3.47;;;1.80;;
18090;SDS011;9172;49.948;9.208;2024-03-02T11:52:17;4.93;;;2.33;;
18090;SDS011;9172;49.948;9.208;2024-03-02T11:54:47;3.70;;;1.87;;
18090;SDS011;9172;49.948;9.208;2024-03-02T11:57:18;3.40;;;1.83;;
18090;SDS011;9172;49.948;9.208;2024-03-02T11:59:49;3.77;;;2.10;;
18090;SDS011;9172;49.948;9.208;2024-03-02T12:02:18;2.70;;;1.60;;
18090;SDS011;9172;49.948;9.208;2024-03-02T12:04:48;2.57;;;1.30;;
18090;SDS011;9172;49.948;9.208;2024-03-02T12:07:18;2.97;;;1.20;;
18090;SDS011;9172;49.948;9.208;2024-03-02T12:09:48;1.43;;;1.10;;
18090;SDS011;9172;49.948;9.208;2024-03-02T12:12:19;2.93;;;1.30;;
18090;SDS011;9172;49.948;9.208;2024-03-02T12:14:50;1.50;;;0.93;;
18090;SDS011;9172;49.948;9.208;2024-03-02T12:17:21;2.43;;;1.40;;
18090;SDS011;9172;49.948;9.208;2024-03-02T12:19:50;3.00;;;1.80;;
18090;SDS011;9172;49.948;9.208;2024-03-02T12:22:19;3.00;;;1.50;;
18090;SDS011;9172;49.948;9.208;2024-03-02T12:24:49;2.93;;;1.27;;
18090;SDS011;9172;49.948;9.208;2024-03-02T12:27:18;3.40;;;1.43;;
18090;SDS011;9172;49.948;9.208;2024-03-02T12:29:47;2.17;;;1.47;;
18090;SDS011;9172;49.948;9.208;2024-03-02T12:32:16;1.90;;;1.37;;
18090;SDS011;9172;49.948;9.208;2024-03-02T12:34:47;3.83;;;1.80;;
18090;SDS011;9172;49.948;9.208;2024-03-02T12:37:15;2.40;;;1.43;;
18090;SDS011;9172;49.948;9.208;2024-03-02T12:39:45;1.70;;;1.17;;
18090;SDS011;9172;49.948;9.208;2024-03-02T12:42:13;2.60;;;1.30;;
18090;SDS011;9172;49.948;9.208;2024-03-02T12:44:42;3.10;;;1.70;;
18090;SDS011;9172;49.948;9.208;2024-03-02T12:47:11;1.83;;;0.90;;
18090;SDS011;9172;49.948;9.208;2024-03-02T12:49:40;2.57;;;1.17;;
18090;SDS011;9172;49.948;9.208;2024-03-02T12:52:11;1.20;;;1.07;;
18090;SDS011;9172;49.948;9.208;2024-03-02T12:54:39;1.63;;;1.00;;
18090;SDS011;9172;49.948;9.208;2024-03-02T12:57:08;2.00;;;0.90;;
18090;SDS011;9172;49.948;9.208;2024-03-02T12:59:37;3.80;;;1.20;;
18090;SDS011;9172;49.948;9.208;2024-03-02T13:02:06;2.17;;;0.83;;
18090;SDS011;9172;49.948;9.208;2024-03-02T13:04:36;1.10;;;0.77;;
18090;SDS011;9172;49.948;9.208;2024-03-02T13:07:05;2.30;;;1.07;;
18090;SDS011;9172;49.948;9.208;2024-03-02T13:09:34;1.23;;;0.90;;
18090;SDS011;9172;49.948;9.208;2024-03-02T13:12:03;8.83;;;1.13;;
18090;SDS011;9172;49.948;9.208;2024-03-02T13:14:33;1.80;;;0.80;;
18090;SDS011;9172;49.948;9.208;2024-03-02T13:17:02;1.80;;;1.10;;
18090;SDS011;9172;49.948;9.208;2024-03-02T13:19:43;5.20;;;1.00;;
18090;SDS011;9172;49.948;9.208;2024-03-02T13:22:20;1.13;;;0.93;;
18090;SDS011;9172;49.948;9.208;2024-03-02T13:24:49;2.17;;;1.23;;
18090;SDS011;9172;49.948;9.208;2024-03-02T13:27:19;2.53;;;1.27;;
18090;SDS011;9172;49.948;9.208;2024-03-02T13:29:47;2.20;;;1.50;;
18090;SDS011;9172;49.948;9.208;2024-03-02T13:34:55;2.90;;;1.30;;
18090;SDS011;9172;49.948;9.208;2024-03-02T13:37:24;2.63;;;1.30;;
18090;SDS011;9172;49.948;9.208;2024-03-02T13:39:52;2.30;;;1.23;;
18090;SDS011;9172;49.948;9.208;2024-03-02T13:42:21;1.83;;;1.20;;
18090;SDS011;9172;49.948;9.208;2024-03-02T13:44:50;1.80;;;1.27;;
18090;SDS011;9172;49.948;9.208;2024-03-02T13:47:19;2.03;;;1.33;;
18090;SDS011;9172;49.948;9.208;2024-03-02T13:49:48;3.03;;;1.50;;
18090;SDS011;9172;49.948;9.208;2024-03-02T13:52:17;2.67;;;1.70;;
18090;SDS011;9172;49.948;9.208;2024-03-02T13:54:46;3.37;;;1.70;;
18090;SDS011;9172;49.948;9.208;2024-03-02T13:57:15;2.43;;;1.60;;
18090;SDS011;9172;49.948;9.208;2024-03-02T13:59:46;2.80;;;1.57;;
18090;SDS011;9172;49.948;9.208;2024-03-02T14:02:15;3.70;;;1.67;;
18090;SDS011;9172;49.948;9.208;2024-03-02T14:04:44;10.43;;;1.83;;
18090;SDS011;9172;49.948;9.208;2024-03-02T14:07:23;2.93;;;1.50;;
18090;SDS011;9172;49.948;9.208;2024-03-02T14:09:52;3.47;;;1.80;;
18090;SDS011;9172;49.948;9.208;2024-03-02T14:12:20;5.20;;;1.90;;
18090;SDS011;9172;49.948;9.208;2024-03-02T14:14:49;3.13;;;1.53;;
18090;SDS011;9172;49.948;9.208;2024-03-02T14:17:19;3.40;;;2.00;;
18090;SDS011;9172;49.948;9.208;2024-03-02T14:19:48;4.00;;;2.10;;
18090;SDS011;9172;49.948;9.208;2024-03-02T14:22:17;3.03;;;1.70;;
18090;SDS011;9172;49.948;9.208;2024-03-02T14:24:45;2.97;;;1.73;;
18090;SDS011;9172;49.948;9.208;2024-03-02T14:27:15;3.40;;;2.20;;
18090;SDS011;9172;49.948;9.208;2024-03-02T14:29:44;3.73;;;2.20;;
18090;SDS011;9172;49.948;9.208;2024-03-02T14:32:12;4.20;;;2.40;;
18090;SDS011;9172;49.948;9.208;2024-03-02T14:34:41;4.17;;;1.97;;
18090;SDS011;9172;49.948;9.208;2024-03-02T14:37:11;3.30;;;1.93;;
18090;SDS011;9172;49.948;9.208;2024-03-02T14:39:40;5.10;;;2.33;;
18090;SDS011;9172;49.948;9.208;2024-03-02T14:42:09;4.13;;;1.63;;
18090;SDS011;9172;49.948;9.208;2024-03-02T14:44:37;4.87;;;2.10;;
18090;SDS011;9172;49.948;9.208;2024-03-02T14:47:06;4.27;;;2.33;;
18090;SDS011;9172;49.948;9.208;2024-03-02T14:49:35;4.07;;;2.13;;
18090;SDS011;9172;49.948;9.208;2024-03-02T14:52:05;4.50;;;2.50;;
18090;SDS011;9172;49.948;9.208;2024-03-02T14:54:35;4.03;;;2.53;;
18090;SDS011;9172;49.948;9.208;2024-03-02T14:57:04;4.80;;;2.20;;
18090;SDS011;9172;49.948;9.208;2024-03-02T14:59:33;3.77;;;2.10;;
18090;SDS011;9172;49.948;9.208;2024-03-02T15:02:04;4.07;;;2.30;;
18090;SDS011;9172;49.948;9.208;2024-03-02T15:04:33;4.67;;;2.20;;
18090;SDS011;9172;49.948;9.208;2024-03-02T15:07:02;4.13;;;1.90;;
18090;SDS011;9172;49.948;9.208;2024-03-02T15:09:30;3.03;;;1.70;;
18090;SDS011;9172;49.948;9.208;2024-03-02T15:12:01;3.53;;;1.60;;
18090;SDS011;9172;49.948;9.208;2024-03-02T15:14:30;2.07;;;1.27;;
18090;SDS011;9172;49.948;9.208;2024-03-02T15:16:59;2.17;;;1.50;;